sensor_id;sensor_type;location;lat;lon;timestamp;temperature;humidity
7331;DHT22;3706;49.198;7.064;2024-02-16T00:00:24;8.20;99.90
7331;DHT22;3706;49.198;7.064;2024-02-16T00:02:52;8.20;99.90
7331;DHT22;3706;49.198;7.064;2024-02-16T00:05:21;8.20;99.90
7331;DHT22;3706;49.198;7.064;2024-02-16T00:07:48;8.10;99.90
7331;DHT22;3706;49.198;7.064;2024-02-16T00:10:15;8.10;99.90
7331;DHT22;3706;49.198;7.064;2024-02-16T00:12:44;8.10;99.90
7331;DHT22;3706;49.198;7.064;2024-02-16T00:15:11;8.10;99.90
7331;DHT22;3706;49.198;7.064;2024-02-16T00:17:38;8.10;99.90
7331;DHT22;3706;49.198;7.064;2024-02-16T00:20:07;8.10;99.90
7331;DHT22;3706;49.198;7.064;2024-02-16T00:22:35;8.10;99.90
7331;DHT22;3706;49.198;7.064;2024-02-16T00:25:02;8.00;99.90
7331;DHT22;3706;49.198;7.064;2024-02-16T00:27:30;8.00;99.90
7331;DHT22;3706;49.198;7.064;2024-02-16T00:29:59;8.00;99.90
7331;DHT22;3706;49.198;7.064;2024-02-16T00:32:28;8.00;99.90
7331;DHT22;3706;49.198;7.064;2024-02-16T00:34:57;8.00;99.90
7331;DHT22;3706;49.198;7.064;2024-02-16T00:37:24;8.00;99.90
7331;DHT22;3706;49.198;7.064;2024-02-16T00:39:53;8.00;99.90
7331;DHT22;3706;49.198;7.064;2024-02-16T00:42:21;8.00;99.90
7331;DHT22;3706;49.198;7.064;2024-02-16T00:44:48;8.00;99.90
7331;DHT22;3706;49.198;7.064;2024-02-16T00:47:15;8.00;99.90
7331;DHT22;3706;49.198;7.064;2024-02-16T00:49:43;8.00;99.90
7331;DHT22;3706;49.198;7.064;2024-02-16T00:52:10;8.00;99.90
7331;DHT22;3706;49.198;7.064;2024-02-16T00:54:38;8.10;99.90
7331;DHT22;3706;49.198;7.064;2024-02-16T00:57:07;8.00;99.90
7331;DHT22;3706;49.198;7.064;2024-02-16T00:59:34;8.10;99.90
7331;DHT22;3706;49.198;7.064;2024-02-16T01:02:01;8.10;99.90
7331;DHT22;3706;49.198;7.064;2024-02-16T01:04:28;8.10;99.90
7331;DHT22;3706;49.198;7.064;2024-02-16T01:06:55;8.10;99.90
7331;DHT22;3706;49.198;7.064;2024-02-16T01:09:22;8.10;99.90
7331;DHT22;3706;49.198;7.064;2024-02-16T01:11:49;8.20;99.90
7331;DHT22;3706;49.198;7.064;2024-02-16T01:14:18;8.20;99.90
7331;DHT22;3706;49.198;7.064;2024-02-16T01:16:46;8.20;99.90
7331;DHT22;3706;49.198;7.064;2024-02-16T01:19:13;8.20;99.90
7331;DHT22;3706;49.198;7.064;2024-02-16T01:21:40;8.20;99.90
7331;DHT22;3706;49.198;7.064;2024-02-16T01:24:07;8.20;99.90
7331;DHT22;3706;49.198;7.064;2024-02-16T01:26:34;8.10;99.90
7331;DHT22;3706;49.198;7.064;2024-02-16T01:29:01;8.10;99.90
7331;DHT22;3706;49.198;7.064;2024-02-16T01:31:30;8.20;99.90
7331;DHT22;3706;49.198;7.064;2024-02-16T01:33:57;8.10;99.90
7331;DHT22;3706;49.198;7.064;2024-02-16T01:36:24;8.20;99.90
7331;DHT22;3706;49.198;7.064;2024-02-16T01:38:51;8.30;99.90
7331;DHT22;3706;49.198;7.064;2024-02-16T01:41:18;8.30;99.90
7331;DHT22;3706;49.198;7.064;2024-02-16T01:43:45;8.30;99.90
7331;DHT22;3706;49.198;7.064;2024-02-16T01:46:12;8.30;99.90
7331;DHT22;3706;49.198;7.064;2024-02-16T01:48:40;8.50;99.90
7331;DHT22;3706;49.198;7.064;2024-02-16T01:51:08;8.60;99.90
7331;DHT22;3706;49.198;7.064;2024-02-16T01:53:36;8.70;99.90
7331;DHT22;3706;49.198;7.064;2024-02-16T01:56:03;8.80;99.90
7331;DHT22;3706;49.198;7.064;2024-02-16T01:58:31;8.90;99.90
7331;DHT22;3706;49.198;7.064;2024-02-16T02:00:58;9.00;99.90
7331;DHT22;3706;49.198;7.064;2024-02-16T02:03:25;9.10;99.90
7331;DHT22;3706;49.198;7.064;2024-02-16T02:05:54;9.20;99.90
7331;DHT22;3706;49.198;7.064;2024-02-16T02:08:21;9.40;99.90
7331;DHT22;3706;49.198;7.064;2024-02-16T02:10:49;9.50;99.90
7331;DHT22;3706;49.198;7.064;2024-02-16T02:13:16;9.60;99.90
7331;DHT22;3706;49.198;7.064;2024-02-16T02:15:45;9.70;99.90
7331;DHT22;3706;49.198;7.064;2024-02-16T02:18:12;9.70;99.90
7331;DHT22;3706;49.198;7.064;2024-02-16T02:20:39;9.80;99.90
7331;DHT22;3706;49.198;7.064;2024-02-16T02:23:08;9.90;99.90
7331;DHT22;3706;49.198;7.064;2024-02-16T02:25:35;9.90;99.90
7331;DHT22;3706;49.198;7.064;2024-02-16T02:28:03;10.00;99.90
7331;DHT22;3706;49.198;7.064;2024-02-16T02:30:32;10.10;99.90
7331;DHT22;3706;49.198;7.064;2024-02-16T02:32:59;10.30;99.90
7331;DHT22;3706;49.198;7.064;2024-02-16T02:35:26;10.60;99.90
7331;DHT22;3706;49.198;7.064;2024-02-16T02:37:53;10.90;99.90
7331;DHT22;3706;49.198;7.064;2024-02-16T02:40:22;11.20;99.90
7331;DHT22;3706;49.198;7.064;2024-02-16T02:42:53;11.50;99.90
7331;DHT22;3706;49.198;7.064;2024-02-16T02:45:20;11.70;99.90
7331;DHT22;3706;49.198;7.064;2024-02-16T02:47:47;11.90;99.90
7331;DHT22;3706;49.198;7.064;2024-02-16T02:50:14;12.00;99.90
7331;DHT22;3706;49.198;7.064;2024-02-16T02:52:41;12.10;99.90
7331;DHT22;3706;49.198;7.064;2024-02-16T02:55:16;12.00;99.90
7331;DHT22;3706;49.198;7.064;2024-02-16T02:57:45;12.00;99.90
7331;DHT22;3706;49.198;7.064;2024-02-16T03:00:15;11.90;99.90
7331;DHT22;3706;49.198;7.064;2024-02-16T03:02:43;11.80;99.90
7331;DHT22;3706;49.198;7.064;2024-02-16T03:05:14;11.70;99.90
7331;DHT22;3706;49.198;7.064;2024-02-16T03:07:41;11.60;99.90
7331;DHT22;3706;49.198;7.064;2024-02-16T03:10:08;11.60;99.90
7331;DHT22;3706;49.198;7.064;2024-02-16T03:12:36;11.60;99.90
7331;DHT22;3706;49.198;7.064;2024-02-16T03:15:05;11.50;99.90
7331;DHT22;3706;49.198;7.064;2024-02-16T03:17:32;11.50;99.90
7331;DHT22;3706;49.198;7.064;2024-02-16T03:20:02;11.50;99.90
7331;DHT22;3706;49.198;7.064;2024-02-16T03:22:29;11.50;99.90
7331;DHT22;3706;49.198;7.064;2024-02-16T03:25:06;11.40;99.90
7331;DHT22;3706;49.198;7.064;2024-02-16T03:27:33;11.40;99.90
7331;DHT22;3706;49.198;7.064;2024-02-16T03:30:06;11.40;99.90
7331;DHT22;3706;49.198;7.064;2024-02-16T03:32:34;11.30;99.90
7331;DHT22;3706;49.198;7.064;2024-02-16T03:35:03;11.20;99.90
7331;DHT22;3706;49.198;7.064;2024-02-16T03:37:31;11.10;99.90
7331;DHT22;3706;49.198;7.064;2024-02-16T03:40:00;10.90;99.90
7331;DHT22;3706;49.198;7.064;2024-02-16T03:42:30;10.90;99.90
7331;DHT22;3706;49.198;7.064;2024-02-16T03:44:57;10.90;99.90
7331;DHT22;3706;49.198;7.064;2024-02-16T03:47:31;10.90;99.90
7331;DHT22;3706;49.198;7.064;2024-02-16T03:49:58;10.90;99.90
7331;DHT22;3706;49.198;7.064;2024-02-16T03:52:28;10.90;99.90
7331;DHT22;3706;49.198;7.064;2024-02-16T03:54:56;10.90;99.90
7331;DHT22;3706;49.198;7.064;2024-02-16T03:57:23;11.00;99.90
7331;DHT22;3706;49.198;7.064;2024-02-16T03:59:50;11.00;99.90
7331;DHT22;3706;49.198;7.064;2024-02-16T04:02:24;11.10;99.90
7331;DHT22;3706;49.198;7.064;2024-02-16T04:04:53;11.20;99.90
7331;DHT22;3706;49.198;7.064;2024-02-16T04:07:20;11.20;99.90
7331;DHT22;3706;49.198;7.064;2024-02-16T04:09:47;11.20;99.90
7331;DHT22;3706;49.198;7.064;2024-02-16T04:12:14;11.30;99.90
7331;DHT22;3706;49.198;7.064;2024-02-16T04:14:41;11.40;99.90
7331;DHT22;3706;49.198;7.064;2024-02-16T04:17:09;11.40;99.90
7331;DHT22;3706;49.198;7.064;2024-02-16T04:19:36;11.40;99.90
7331;DHT22;3706;49.198;7.064;2024-02-16T04:22:05;11.50;99.90
7331;DHT22;3706;49.198;7.064;2024-02-16T04:24:32;11.50;99.90
7331;DHT22;3706;49.198;7.064;2024-02-16T04:26:59;11.50;99.90
7331;DHT22;3706;49.198;7.064;2024-02-16T04:29:26;11.50;99.90
7331;DHT22;3706;49.198;7.064;2024-02-16T04:31:53;11.50;99.90
7331;DHT22;3706;49.198;7.064;2024-02-16T04:34:20;11.50;99.90
7331;DHT22;3706;49.198;7.064;2024-02-16T04:36:47;11.50;99.90
7331;DHT22;3706;49.198;7.064;2024-02-16T04:39:16;11.60;99.90
7331;DHT22;3706;49.198;7.064;2024-02-16T04:41:43;11.70;99.90
7331;DHT22;3706;49.198;7.064;2024-02-16T04:44:10;11.60;99.90
7331;DHT22;3706;49.198;7.064;2024-02-16T04:46:38;11.70;99.90
7331;DHT22;3706;49.198;7.064;2024-02-16T04:49:05;11.70;99.90
7331;DHT22;3706;49.198;7.064;2024-02-16T04:51:32;11.70;99.90
7331;DHT22;3706;49.198;7.064;2024-02-16T04:53:59;11.70;99.90
7331;DHT22;3706;49.198;7.064;2024-02-16T04:56:28;11.70;99.90
7331;DHT22;3706;49.198;7.064;2024-02-16T04:58:55;11.70;99.90
7331;DHT22;3706;49.198;7.064;2024-02-16T05:01:22;11.70;99.90
7331;DHT22;3706;49.198;7.064;2024-02-16T05:03:49;11.70;99.90
7331;DHT22;3706;49.198;7.064;2024-02-16T05:06:16;11.60;99.90
7331;DHT22;3706;49.198;7.064;2024-02-16T05:08:42;11.50;99.90
7331;DHT22;3706;49.198;7.064;2024-02-16T05:11:09;11.40;99.90
7331;DHT22;3706;49.198;7.064;2024-02-16T05:13:38;11.40;99.90
7331;DHT22;3706;49.198;7.064;2024-02-16T05:16:08;11.40;99.90
7331;DHT22;3706;49.198;7.064;2024-02-16T05:18:36;11.40;99.90
7331;DHT22;3706;49.198;7.064;2024-02-16T05:21:04;11.40;99.90
7331;DHT22;3706;49.198;7.064;2024-02-16T05:23:31;11.30;99.90
7331;DHT22;3706;49.198;7.064;2024-02-16T05:25:58;11.30;99.90
7331;DHT22;3706;49.198;7.064;2024-02-16T05:28:28;11.20;99.90
7331;DHT22;3706;49.198;7.064;2024-02-16T05:30:58;11.20;99.90
7331;DHT22;3706;49.198;7.064;2024-02-16T05:33:30;11.20;99.90
7331;DHT22;3706;49.198;7.064;2024-02-16T05:35:57;11.20;99.90
7331;DHT22;3706;49.198;7.064;2024-02-16T05:38:24;11.30;99.90
7331;DHT22;3706;49.198;7.064;2024-02-16T05:41:01;11.30;99.90
7331;DHT22;3706;49.198;7.064;2024-02-16T05:43:28;11.40;99.90
7331;DHT22;3706;49.198;7.064;2024-02-16T05:45:56;11.50;99.90
7331;DHT22;3706;49.198;7.064;2024-02-16T05:48:23;11.50;99.90
7331;DHT22;3706;49.198;7.064;2024-02-16T05:50:52;11.50;99.90
7331;DHT22;3706;49.198;7.064;2024-02-16T05:53:19;11.50;99.90
7331;DHT22;3706;49.198;7.064;2024-02-16T05:55:46;11.50;99.90
7331;DHT22;3706;49.198;7.064;2024-02-16T05:58:13;11.50;99.90
7331;DHT22;3706;49.198;7.064;2024-02-16T06:00:40;11.50;99.90
7331;DHT22;3706;49.198;7.064;2024-02-16T06:03:09;11.50;99.90
7331;DHT22;3706;49.198;7.064;2024-02-16T06:05:36;11.50;99.90
7331;DHT22;3706;49.198;7.064;2024-02-16T06:08:04;11.50;99.90
7331;DHT22;3706;49.198;7.064;2024-02-16T06:10:31;11.50;99.90
7331;DHT22;3706;49.198;7.064;2024-02-16T06:12:58;11.50;99.90
7331;DHT22;3706;49.198;7.064;2024-02-16T06:15:25;11.30;99.90
7331;DHT22;3706;49.198;7.064;2024-02-16T06:17:52;11.10;99.90
7331;DHT22;3706;49.198;7.064;2024-02-16T06:20:21;10.90;99.90
7331;DHT22;3706;49.198;7.064;2024-02-16T06:22:48;10.80;99.90
7331;DHT22;3706;49.198;7.064;2024-02-16T06:25:15;10.70;99.90
7331;DHT22;3706;49.198;7.064;2024-02-16T06:27:42;10.50;99.90
7331;DHT22;3706;49.198;7.064;2024-02-16T06:30:10;10.50;99.90
7331;DHT22;3706;49.198;7.064;2024-02-16T06:32:38;10.40;99.90
7331;DHT22;3706;49.198;7.064;2024-02-16T06:35:07;10.40;99.90
7331;DHT22;3706;49.198;7.064;2024-02-16T06:37:36;10.30;99.90
7331;DHT22;3706;49.198;7.064;2024-02-16T06:40:05;10.30;99.90
7331;DHT22;3706;49.198;7.064;2024-02-16T06:42:34;10.20;99.90
7331;DHT22;3706;49.198;7.064;2024-02-16T06:45:02;10.20;99.90
7331;DHT22;3706;49.198;7.064;2024-02-16T06:47:29;10.20;99.90
7331;DHT22;3706;49.198;7.064;2024-02-16T06:49:56;10.20;99.90
7331;DHT22;3706;49.198;7.064;2024-02-16T06:52:23;10.20;99.90
7331;DHT22;3706;49.198;7.064;2024-02-16T06:54:52;10.20;99.90
7331;DHT22;3706;49.198;7.064;2024-02-16T06:57:19;10.20;99.90
7331;DHT22;3706;49.198;7.064;2024-02-16T06:59:46;10.20;99.90
7331;DHT22;3706;49.198;7.064;2024-02-16T07:02:13;10.30;99.90
7331;DHT22;3706;49.198;7.064;2024-02-16T07:04:42;10.40;99.90
7331;DHT22;3706;49.198;7.064;2024-02-16T07:07:11;10.60;99.90
7331;DHT22;3706;49.198;7.064;2024-02-16T07:09:38;10.80;99.90
7331;DHT22;3706;49.198;7.064;2024-02-16T07:12:07;10.90;99.90
7331;DHT22;3706;49.198;7.064;2024-02-16T07:14:37;11.10;99.90
7331;DHT22;3706;49.198;7.064;2024-02-16T07:17:06;11.20;99.90
7331;DHT22;3706;49.198;7.064;2024-02-16T07:19:35;11.30;99.90
7331;DHT22;3706;49.198;7.064;2024-02-16T07:22:02;11.40;99.90
7331;DHT22;3706;49.198;7.064;2024-02-16T07:24:32;11.40;99.90
7331;DHT22;3706;49.198;7.064;2024-02-16T07:26:59;11.40;99.90
7331;DHT22;3706;49.198;7.064;2024-02-16T07:29:28;11.50;99.90
7331;DHT22;3706;49.198;7.064;2024-02-16T07:31:55;11.50;99.90
7331;DHT22;3706;49.198;7.064;2024-02-16T07:34:22;11.50;99.90
7331;DHT22;3706;49.198;7.064;2024-02-16T07:36:49;11.60;99.90
7331;DHT22;3706;49.198;7.064;2024-02-16T07:39:17;11.50;99.90
7331;DHT22;3706;49.198;7.064;2024-02-16T07:41:44;11.50;99.90
7331;DHT22;3706;49.198;7.064;2024-02-16T07:44:11;11.50;99.90
7331;DHT22;3706;49.198;7.064;2024-02-16T07:46:43;11.50;99.90
7331;DHT22;3706;49.198;7.064;2024-02-16T07:49:11;11.50;99.90
7331;DHT22;3706;49.198;7.064;2024-02-16T07:51:39;11.60;99.90
7331;DHT22;3706;49.198;7.064;2024-02-16T07:54:07;11.60;99.90
7331;DHT22;3706;49.198;7.064;2024-02-16T07:56:34;11.70;99.90
7331;DHT22;3706;49.198;7.064;2024-02-16T07:59:01;11.80;99.90
7331;DHT22;3706;49.198;7.064;2024-02-16T08:01:30;11.80;99.90
7331;DHT22;3706;49.198;7.064;2024-02-16T08:03:58;11.80;99.90
7331;DHT22;3706;49.198;7.064;2024-02-16T08:06:26;11.80;99.90
7331;DHT22;3706;49.198;7.064;2024-02-16T08:08:53;11.90;99.90
7331;DHT22;3706;49.198;7.064;2024-02-16T08:11:20;11.90;99.90
7331;DHT22;3706;49.198;7.064;2024-02-16T08:13:48;12.00;99.90
7331;DHT22;3706;49.198;7.064;2024-02-16T08:16:15;12.00;99.90
7331;DHT22;3706;49.198;7.064;2024-02-16T08:18:43;12.10;99.90
7331;DHT22;3706;49.198;7.064;2024-02-16T08:21:12;12.20;99.90
7331;DHT22;3706;49.198;7.064;2024-02-16T08:23:42;12.30;99.90
7331;DHT22;3706;49.198;7.064;2024-02-16T08:26:09;12.40;99.90
7331;DHT22;3706;49.198;7.064;2024-02-16T08:28:36;12.50;99.90
7331;DHT22;3706;49.198;7.064;2024-02-16T08:31:05;12.50;99.90
7331;DHT22;3706;49.198;7.064;2024-02-16T08:33:32;12.60;99.90
7331;DHT22;3706;49.198;7.064;2024-02-16T08:36:02;12.70;99.90
7331;DHT22;3706;49.198;7.064;2024-02-16T08:38:32;12.80;99.90
7331;DHT22;3706;49.198;7.064;2024-02-16T08:41:01;12.90;99.90
7331;DHT22;3706;49.198;7.064;2024-02-16T08:43:28;13.10;99.90
7331;DHT22;3706;49.198;7.064;2024-02-16T08:45:56;13.20;99.90
7331;DHT22;3706;49.198;7.064;2024-02-16T08:48:24;13.40;99.90
7331;DHT22;3706;49.198;7.064;2024-02-16T08:50:51;13.60;99.90
7331;DHT22;3706;49.198;7.064;2024-02-16T08:53:18;13.70;99.90
7331;DHT22;3706;49.198;7.064;2024-02-16T08:55:47;13.90;99.90
7331;DHT22;3706;49.198;7.064;2024-02-16T08:58:14;14.00;99.90
7331;DHT22;3706;49.198;7.064;2024-02-16T09:00:43;14.10;99.90
7331;DHT22;3706;49.198;7.064;2024-02-16T09:03:16;14.20;99.90
7331;DHT22;3706;49.198;7.064;2024-02-16T09:05:43;14.20;99.90
7331;DHT22;3706;49.198;7.064;2024-02-16T09:08:11;14.20;99.90
7331;DHT22;3706;49.198;7.064;2024-02-16T09:10:38;14.30;99.90
7331;DHT22;3706;49.198;7.064;2024-02-16T09:13:07;14.20;99.90
7331;DHT22;3706;49.198;7.064;2024-02-16T09:15:34;14.30;99.90
7331;DHT22;3706;49.198;7.064;2024-02-16T09:18:02;14.30;99.90
7331;DHT22;3706;49.198;7.064;2024-02-16T09:20:32;14.40;99.90
7331;DHT22;3706;49.198;7.064;2024-02-16T09:23:02;14.40;99.90
7331;DHT22;3706;49.198;7.064;2024-02-16T09:25:29;14.40;99.90
7331;DHT22;3706;49.198;7.064;2024-02-16T09:27:56;14.40;99.90
7331;DHT22;3706;49.198;7.064;2024-02-16T09:30:25;14.40;99.90
7331;DHT22;3706;49.198;7.064;2024-02-16T09:32:53;14.40;99.90
7331;DHT22;3706;49.198;7.064;2024-02-16T09:35:20;14.50;99.90
7331;DHT22;3706;49.198;7.064;2024-02-16T09:37:50;14.60;99.90
7331;DHT22;3706;49.198;7.064;2024-02-16T09:40:17;14.60;99.90
7331;DHT22;3706;49.198;7.064;2024-02-16T09:42:48;14.70;99.90
7331;DHT22;3706;49.198;7.064;2024-02-16T09:45:16;14.70;99.90
7331;DHT22;3706;49.198;7.064;2024-02-16T09:47:48;14.80;99.90
7331;DHT22;3706;49.198;7.064;2024-02-16T09:50:17;14.80;99.90
7331;DHT22;3706;49.198;7.064;2024-02-16T09:52:47;14.80;99.90
7331;DHT22;3706;49.198;7.064;2024-02-16T09:55:15;14.80;99.90
7331;DHT22;3706;49.198;7.064;2024-02-16T09:57:43;14.80;99.90
7331;DHT22;3706;49.198;7.064;2024-02-16T10:00:10;14.90;99.90
7331;DHT22;3706;49.198;7.064;2024-02-16T10:02:42;14.90;99.90
7331;DHT22;3706;49.198;7.064;2024-02-16T10:05:16;15.10;99.90
7331;DHT22;3706;49.198;7.064;2024-02-16T10:07:44;15.20;99.90
7331;DHT22;3706;49.198;7.064;2024-02-16T10:10:21;15.30;99.90
7331;DHT22;3706;49.198;7.064;2024-02-16T10:12:49;15.30;99.90
7331;DHT22;3706;49.198;7.064;2024-02-16T10:15:22;15.30;99.90
7331;DHT22;3706;49.198;7.064;2024-02-16T10:17:59;15.30;99.90
7331;DHT22;3706;49.198;7.064;2024-02-16T10:20:34;15.30;99.90
7331;DHT22;3706;49.198;7.064;2024-02-16T10:23:05;15.40;99.90
7331;DHT22;3706;49.198;7.064;2024-02-16T10:25:32;15.40;99.90
7331;DHT22;3706;49.198;7.064;2024-02-16T10:28:03;15.40;99.90
7331;DHT22;3706;49.198;7.064;2024-02-16T10:30:39;15.30;99.90
7331;DHT22;3706;49.198;7.064;2024-02-16T10:33:09;15.20;99.90
7331;DHT22;3706;49.198;7.064;2024-02-16T10:35:44;15.20;99.90
7331;DHT22;3706;49.198;7.064;2024-02-16T10:38:12;15.10;99.90
7331;DHT22;3706;49.198;7.064;2024-02-16T10:40:40;15.00;99.90
7331;DHT22;3706;49.198;7.064;2024-02-16T10:43:09;14.90;99.90
7331;DHT22;3706;49.198;7.064;2024-02-16T10:45:37;14.90;99.90
7331;DHT22;3706;49.198;7.064;2024-02-16T10:48:05;14.80;99.90
7331;DHT22;3706;49.198;7.064;2024-02-16T10:50:34;14.80;99.90
7331;DHT22;3706;49.198;7.064;2024-02-16T10:53:08;14.90;99.90
7331;DHT22;3706;49.198;7.064;2024-02-16T10:55:39;15.00;99.90
7331;DHT22;3706;49.198;7.064;2024-02-16T10:58:07;15.00;99.90
7331;DHT22;3706;49.198;7.064;2024-02-16T11:00:35;15.00;99.90
7331;DHT22;3706;49.198;7.064;2024-02-16T11:03:03;15.10;99.90
7331;DHT22;3706;49.198;7.064;2024-02-16T11:05:34;15.10;99.90
7331;DHT22;3706;49.198;7.064;2024-02-16T11:08:04;15.20;99.90
7331;DHT22;3706;49.198;7.064;2024-02-16T11:10:32;15.30;99.90
7331;DHT22;3706;49.198;7.064;2024-02-16T11:13:03;15.40;99.90
7331;DHT22;3706;49.198;7.064;2024-02-16T11:15:31;15.50;99.90
7331;DHT22;3706;49.198;7.064;2024-02-16T11:18:01;15.60;99.90
7331;DHT22;3706;49.198;7.064;2024-02-16T11:20:28;15.80;99.90
7331;DHT22;3706;49.198;7.064;2024-02-16T11:23:14;16.00;99.90
7331;DHT22;3706;49.198;7.064;2024-02-16T11:25:50;16.20;99.90
7331;DHT22;3706;49.198;7.064;2024-02-16T11:28:18;16.50;99.90
7331;DHT22;3706;49.198;7.064;2024-02-16T11:30:45;16.70;99.90
7331;DHT22;3706;49.198;7.064;2024-02-16T11:33:12;16.80;99.90
7331;DHT22;3706;49.198;7.064;2024-02-16T11:35:40;16.90;99.90
7331;DHT22;3706;49.198;7.064;2024-02-16T11:38:12;16.90;99.90
7331;DHT22;3706;49.198;7.064;2024-02-16T11:40:41;16.80;99.90
7331;DHT22;3706;49.198;7.064;2024-02-16T11:43:08;16.60;99.90
7331;DHT22;3706;49.198;7.064;2024-02-16T11:45:35;16.40;99.90
7331;DHT22;3706;49.198;7.064;2024-02-16T11:48:06;16.30;99.90
7331;DHT22;3706;49.198;7.064;2024-02-16T11:50:33;16.20;99.90
7331;DHT22;3706;49.198;7.064;2024-02-16T11:53:01;16.00;99.90
7331;DHT22;3706;49.198;7.064;2024-02-16T11:55:29;15.90;99.90
7331;DHT22;3706;49.198;7.064;2024-02-16T11:57:58;15.80;99.90
7331;DHT22;3706;49.198;7.064;2024-02-16T12:00:25;15.80;99.90
7331;DHT22;3706;49.198;7.064;2024-02-16T12:02:59;16.00;99.90
7331;DHT22;3706;49.198;7.064;2024-02-16T12:05:27;16.00;99.90
7331;DHT22;3706;49.198;7.064;2024-02-16T12:07:57;16.10;99.90
7331;DHT22;3706;49.198;7.064;2024-02-16T12:10:25;16.20;99.90
7331;DHT22;3706;49.198;7.064;2024-02-16T12:12:54;16.30;99.90
7331;DHT22;3706;49.198;7.064;2024-02-16T12:15:21;16.30;99.90
7331;DHT22;3706;49.198;7.064;2024-02-16T12:17:58;16.30;99.90
7331;DHT22;3706;49.198;7.064;2024-02-16T12:20:26;16.30;99.90
7331;DHT22;3706;49.198;7.064;2024-02-16T12:22:53;16.20;99.90
7331;DHT22;3706;49.198;7.064;2024-02-16T12:25:20;16.10;99.90
7331;DHT22;3706;49.198;7.064;2024-02-16T12:27:47;15.90;99.90
7331;DHT22;3706;49.198;7.064;2024-02-16T12:30:19;15.80;99.90
7331;DHT22;3706;49.198;7.064;2024-02-16T12:32:46;15.60;99.90
7331;DHT22;3706;49.198;7.064;2024-02-16T12:35:16;15.50;99.90
7331;DHT22;3706;49.198;7.064;2024-02-16T12:37:43;15.50;99.90
7331;DHT22;3706;49.198;7.064;2024-02-16T12:40:10;15.40;99.90
7331;DHT22;3706;49.198;7.064;2024-02-16T12:42:37;15.40;99.90
7331;DHT22;3706;49.198;7.064;2024-02-16T12:45:05;15.40;99.90
7331;DHT22;3706;49.198;7.064;2024-02-16T12:47:37;15.40;99.90
7331;DHT22;3706;49.198;7.064;2024-02-16T12:50:04;15.40;99.90
7331;DHT22;3706;49.198;7.064;2024-02-16T12:52:32;15.50;99.90
7331;DHT22;3706;49.198;7.064;2024-02-16T12:55:00;15.70;99.90
7331;DHT22;3706;49.198;7.064;2024-02-16T12:57:28;15.80;99.90
7331;DHT22;3706;49.198;7.064;2024-02-16T12:59:55;15.90;99.90
7331;DHT22;3706;49.198;7.064;2024-02-16T13:02:22;16.00;99.90
7331;DHT22;3706;49.198;7.064;2024-02-16T13:04:50;16.10;99.90
7331;DHT22;3706;49.198;7.064;2024-02-16T13:07:18;16.10;99.90
7331;DHT22;3706;49.198;7.064;2024-02-16T13:09:45;16.10;99.90
7331;DHT22;3706;49.198;7.064;2024-02-16T13:12:12;16.10;99.90
7331;DHT22;3706;49.198;7.064;2024-02-16T13:14:40;16.00;99.90
7331;DHT22;3706;49.198;7.064;2024-02-16T13:17:07;15.90;99.90
7331;DHT22;3706;49.198;7.064;2024-02-16T13:19:34;15.80;99.90
7331;DHT22;3706;49.198;7.064;2024-02-16T13:22:02;15.60;99.90
7331;DHT22;3706;49.198;7.064;2024-02-16T13:24:30;15.40;99.90
7331;DHT22;3706;49.198;7.064;2024-02-16T13:26:59;15.20;99.90
7331;DHT22;3706;49.198;7.064;2024-02-16T13:29:26;14.90;99.90
7331;DHT22;3706;49.198;7.064;2024-02-16T13:31:54;14.70;99.90
7331;DHT22;3706;49.198;7.064;2024-02-16T13:34:21;14.40;99.90
7331;DHT22;3706;49.198;7.064;2024-02-16T13:36:48;14.30;99.90
7331;DHT22;3706;49.198;7.064;2024-02-16T13:39:17;14.20;99.90
7331;DHT22;3706;49.198;7.064;2024-02-16T13:41:45;14.10;99.90
7331;DHT22;3706;49.198;7.064;2024-02-16T13:44:14;14.10;99.90
7331;DHT22;3706;49.198;7.064;2024-02-16T13:46:41;14.10;99.90
7331;DHT22;3706;49.198;7.064;2024-02-16T13:49:08;14.10;99.90
7331;DHT22;3706;49.198;7.064;2024-02-16T13:51:35;14.10;99.90
7331;DHT22;3706;49.198;7.064;2024-02-16T13:54:02;14.10;99.90
7331;DHT22;3706;49.198;7.064;2024-02-16T13:56:31;14.10;99.90
7331;DHT22;3706;49.198;7.064;2024-02-16T13:58:58;14.10;99.90
7331;DHT22;3706;49.198;7.064;2024-02-16T14:01:25;14.10;99.90
7331;DHT22;3706;49.198;7.064;2024-02-16T14:03:53;14.00;99.90
7331;DHT22;3706;49.198;7.064;2024-02-16T14:06:20;14.00;99.90
7331;DHT22;3706;49.198;7.064;2024-02-16T14:08:47;14.00;99.90
7331;DHT22;3706;49.198;7.064;2024-02-16T14:11:16;14.00;99.90
7331;DHT22;3706;49.198;7.064;2024-02-16T14:13:45;14.00;99.90
7331;DHT22;3706;49.198;7.064;2024-02-16T14:16:12;14.00;99.90
7331;DHT22;3706;49.198;7.064;2024-02-16T14:18:39;14.00;99.90
7331;DHT22;3706;49.198;7.064;2024-02-16T14:21:06;14.10;99.90
7331;DHT22;3706;49.198;7.064;2024-02-16T14:23:33;14.10;99.90
7331;DHT22;3706;49.198;7.064;2024-02-16T14:26:00;14.10;99.90
7331;DHT22;3706;49.198;7.064;2024-02-16T14:28:27;14.20;99.90
7331;DHT22;3706;49.198;7.064;2024-02-16T14:30:56;14.20;99.90
7331;DHT22;3706;49.198;7.064;2024-02-16T14:33:23;14.20;99.90
7331;DHT22;3706;49.198;7.064;2024-02-16T14:35:50;14.20;99.90
7331;DHT22;3706;49.198;7.064;2024-02-16T14:38:17;14.20;99.90
7331;DHT22;3706;49.198;7.064;2024-02-16T14:40:44;14.20;99.90
7331;DHT22;3706;49.198;7.064;2024-02-16T14:43:11;14.30;99.90
7331;DHT22;3706;49.198;7.064;2024-02-16T14:45:40;14.30;99.90
7331;DHT22;3706;49.198;7.064;2024-02-16T14:48:09;14.30;99.90
7331;DHT22;3706;49.198;7.064;2024-02-16T14:50:37;14.30;99.90
7331;DHT22;3706;49.198;7.064;2024-02-16T14:53:04;14.30;99.90
7331;DHT22;3706;49.198;7.064;2024-02-16T14:55:31;14.20;99.90
7331;DHT22;3706;49.198;7.064;2024-02-16T14:58:01;14.20;99.90
7331;DHT22;3706;49.198;7.064;2024-02-16T15:00:29;14.20;99.90
7331;DHT22;3706;49.198;7.064;2024-02-16T15:02:56;14.10;99.90
7331;DHT22;3706;49.198;7.064;2024-02-16T15:05:25;14.00;99.90
7331;DHT22;3706;49.198;7.064;2024-02-16T15:07:52;13.80;99.90
7331;DHT22;3706;49.198;7.064;2024-02-16T15:10:19;13.70;99.90
7331;DHT22;3706;49.198;7.064;2024-02-16T15:12:46;13.50;99.90
7331;DHT22;3706;49.198;7.064;2024-02-16T15:15:13;13.30;99.90
7331;DHT22;3706;49.198;7.064;2024-02-16T15:17:40;13.20;99.90
7331;DHT22;3706;49.198;7.064;2024-02-16T15:20:08;13.10;99.90
7331;DHT22;3706;49.198;7.064;2024-02-16T15:22:37;13.00;99.90
7331;DHT22;3706;49.198;7.064;2024-02-16T15:25:05;13.00;99.90
7331;DHT22;3706;49.198;7.064;2024-02-16T15:27:34;13.00;99.90
7331;DHT22;3706;49.198;7.064;2024-02-16T15:30:01;12.90;99.90
7331;DHT22;3706;49.198;7.064;2024-02-16T15:32:28;12.80;99.90
7331;DHT22;3706;49.198;7.064;2024-02-16T15:34:57;12.80;99.90
7331;DHT22;3706;49.198;7.064;2024-02-16T15:37:24;12.80;99.90
7331;DHT22;3706;49.198;7.064;2024-02-16T15:39:53;12.70;99.90
7331;DHT22;3706;49.198;7.064;2024-02-16T15:42:27;12.70;99.90
7331;DHT22;3706;49.198;7.064;2024-02-16T15:44:56;12.60;99.90
7331;DHT22;3706;49.198;7.064;2024-02-16T15:47:24;12.50;99.90
7331;DHT22;3706;49.198;7.064;2024-02-16T15:49:54;12.40;99.90
7331;DHT22;3706;49.198;7.064;2024-02-16T15:52:21;12.30;99.90
7331;DHT22;3706;49.198;7.064;2024-02-16T15:54:48;12.10;99.90
7331;DHT22;3706;49.198;7.064;2024-02-16T15:57:17;12.00;99.90
7331;DHT22;3706;49.198;7.064;2024-02-16T15:59:44;11.90;99.90
7331;DHT22;3706;49.198;7.064;2024-02-16T16:02:11;11.80;99.90
7331;DHT22;3706;49.198;7.064;2024-02-16T16:04:38;11.80;99.90
7331;DHT22;3706;49.198;7.064;2024-02-16T16:07:06;11.70;99.90
7331;DHT22;3706;49.198;7.064;2024-02-16T16:09:33;11.60;99.90